Time;durP1;ratioP1;P1;durP2;ratioP2;P2;SDS_P1;SDS_P2;PMS_P1;PMS_P2;Temp;Humidity;BMP_temperature;BMP_pressure;BME280_temperature;BME280_humidity;BME280_pressure;Samples;Min_cycle;Max_cycle;Signal;HPM_P1;HPM_P2
2023/09/12 00:01:34;;;;;;;16.75;15.07;;;21.80;73.30;;;;;;5088326;28;20036;-73
2023/09/12 00:04:00;;;;;;;28.73;25.63;;;21.90;73.40;;;;;;5091042;28;20065;-72
2023/09/12 00:06:25;;;;;;;27.38;24.65;;;21.80;73.70;;;;;;5074518;28;20465;-73
2023/09/12 00:08:52;;;;;;;27.05;24.27;;;21.80;74.00;;;;;;5075506;28;20048;-72
2023/09/12 00:11:18;;;;;;;29.45;26.35;;;21.80;74.30;;;;;;5089323;28;20394;-73
2023/09/12 00:13:44;;;;;;;22.00;19.70;;;21.80;74.60;;;;;;5092399;28;20040;-73
2023/09/12 00:16:10;;;;;;;24.10;21.48;;;21.70;74.70;;;;;;5092026;28;20028;-73
2023/09/12 00:18:40;;;;;;;23.33;20.98;;;21.70;74.90;;;;;;5092110;28;20044;-72
2023/09/12 00:21:05;;;;;;;17.50;15.70;;;21.60;75.00;;;;;;5092214;28;20067;-73
2023/09/12 00:23:31;;;;;;;17.75;15.93;;;21.60;74.90;;;;;;5092158;28;20431;-73
2023/09/12 00:25:57;;;;;;;20.00;18.02;;;21.60;74.90;;;;;;5091383;28;20523;-72
2023/09/12 00:28:23;;;;;;;20.33;18.33;;;21.50;74.80;;;;;;5091650;28;20044;-73
2023/09/12 00:30:49;;;;;;;19.05;17.25;;;21.50;75.00;;;;;;5091602;28;20136;-73
2023/09/12 00:33:15;;;;;;;21.33;19.00;;;21.50;74.90;;;;;;5091998;28;20035;-72
2023/09/12 00:35:41;;;;;;;18.20;16.30;;;21.50;75.00;;;;;;5074864;28;20044;-72
2023/09/12 00:38:08;;;;;;;19.92;17.92;;;21.50;74.80;;;;;;5091402;28;20051;-70
2023/09/12 00:40:34;;;;;;;21.98;19.77;;;21.50;74.80;;;;;;5086876;28;20073;-69
2023/09/12 00:42:59;;;;;;;28.02;25.15;;;21.50;74.90;;;;;;5091308;28;20075;-70
2023/09/12 00:45:25;;;;;;;26.38;23.33;;;21.50;75.00;;;;;;5091476;28;20035;-70
2023/09/12 00:47:52;;;;;;;25.27;21.80;;;21.50;75.30;;;;;;5057996;28;20051;-70
2023/09/12 00:50:20;;;;;;;29.80;26.70;;;21.50;75.30;;;;;;5089313;28;20414;-72
2023/09/12 00:52:47;;;;;;;25.40;22.80;;;21.40;75.60;;;;;;5091448;28;20631;-72
2023/09/12 00:55:13;;;;;;;31.98;28.77;;;21.40;75.70;;;;;;5091281;28;20036;-72
2023/09/12 00:57:40;;;;;;;30.25;27.13;;;21.40;75.90;;;;;;5091052;28;20044;-72
2023/09/12 01:00:12;;;;;;;32.30;28.95;;;21.30;76.00;;;;;;5091335;28;20040;-72
2023/09/12 01:02:39;;;;;;;29.88;26.80;;;21.30;76.30;;;;;;5091431;28;20054;-72
2023/09/12 01:05:07;;;;;;;31.73;28.50;;;21.20;76.40;;;;;;5091469;28;20039;-72
2023/09/12 01:07:34;;;;;;;32.53;29.13;;;21.10;76.60;;;;;;5091310;28;20039;-73
2023/09/12 01:10:00;;;;;;;34.08;30.40;;;21.00;76.70;;;;;;5091175;28;20035;-72
2023/09/12 01:12:25;;;;;;;37.83;32.50;;;21.00;77.00;;;;;;5090293;28;20035;-72
2023/09/12 01:14:51;;;;;;;28.38;25.38;;;20.90;77.30;;;;;;5091120;28;20131;-72
2023/09/12 01:17:17;;;;;;;21.95;19.75;;;20.80;77.60;;;;;;5073854;28;20402;-72
2023/09/12 01:19:42;;;;;;;25.52;22.90;;;20.70;77.80;;;;;;5090819;28;20051;-72
2023/09/12 01:22:38;;;;;;;36.60;31.70;;;20.70;78.00;;;;;;5089681;28;20093;-72
2023/09/12 01:25:26;;;;;;;34.72;31.13;;;20.70;78.30;;;;;;5105290;28;20033;-72
2023/09/12 01:27:54;;;;;;;33.00;29.50;;;20.60;78.60;;;;;;5090915;28;20144;-72
2023/09/12 01:30:25;;;;;;;25.30;22.60;;;20.60;78.90;;;;;;5090577;28;20039;-72
2023/09/12 01:32:51;;;;;;;24.25;21.65;;;20.60;79.20;;;;;;5073622;28;20110;-72
2023/09/12 01:35:17;;;;;;;20.80;18.80;;;20.50;79.20;;;;;;5090305;28;20039;-72
2023/09/12 01:37:42;;;;;;;27.02;24.13;;;20.50;79.30;;;;;;5090529;28;20036;-72
2023/09/12 01:40:10;;;;;;;21.63;19.33;;;20.50;79.30;;;;;;5073603;28;20508;-72
2023/09/12 01:42:38;;;;;;;29.50;26.27;;;20.50;79.30;;;;;;5090159;28;20064;-72
2023/09/12 01:45:05;;;;;;;19.73;17.73;;;20.50;79.30;;;;;;5087343;28;20040;-72
2023/09/12 01:47:33;;;;;;;23.00;20.58;;;20.50;79.10;;;;;;5090541;28;20036;-72
2023/09/12 01:50:00;;;;;;;22.05;19.65;;;20.50;79.00;;;;;;5090122;28;20123;-72
2023/09/12 01:52:28;;;;;;;20.52;18.33;;;20.60;78.90;;;;;;5090107;28;20040;-72
2023/09/12 01:54:55;;;;;;;22.35;20.15;;;20.60;78.80;;;;;;5090772;28;20110;-72
2023/09/12 01:57:21;;;;;;;22.88;20.42;;;20.60;78.60;;;;;;5090944;28;20046;-72
2023/09/12 01:59:48;;;;;;;21.70;19.45;;;20.70;78.60;;;;;;5074262;28;20039;-72
2023/09/12 02:02:15;;;;;;;29.35;26.27;;;20.70;78.40;;;;;;5090368;28;20052;-72
2023/09/12 02:04:46;;;;;;;41.30;35.25;;;20.70;78.40;;;;;;5073690;28;20109;-72
2023/09/12 02:07:12;;;;;;;40.60;33.85;;;20.80;78.80;;;;;;5074014;28;20067;-73
2023/09/12 02:09:38;;;;;;;37.72;32.78;;;20.80;79.10;;;;;;5090556;28;20062;-72
2023/09/12 02:12:04;;;;;;;41.88;37.05;;;20.80;79.20;;;;;;5090836;28;20119;-72
2023/09/12 02:14:29;;;;;;;42.90;36.67;;;20.80;79.50;;;;;;5091972;28;20071;-72
2023/09/12 02:16:55;;;;;;;44.78;36.50;;;20.80;79.60;;;;;;5094375;28;20525;-72
2023/09/12 02:19:21;;;;;;;42.47;36.08;;;20.80;79.70;;;;;;5088103;28;20077;-72
2023/09/12 02:21:46;;;;;;;40.25;35.95;;;20.70;79.80;;;;;;5091114;28;20051;-72
2023/09/12 02:24:12;;;;;;;44.05;37.95;;;20.70;80.00;;;;;;5090444;28;20040;-72
2023/09/12 02:26:37;;;;;;;41.85;36.80;;;20.70;80.10;;;;;;5074050;28;20054;-72
2023/09/12 02:29:06;;;;;;;48.25;40.30;;;20.60;80.10;;;;;;5090987;28;20068;-72
2023/09/12 02:31:31;;;;;;;42.90;36.58;;;20.50;80.20;;;;;;5090930;28;20047;-72
2023/09/12 02:33:57;;;;;;;44.80;37.75;;;20.50;80.40;;;;;;5074064;28;20054;-72
2023/09/12 02:36:23;;;;;;;44.05;37.95;;;20.50;80.50;;;;;;5090677;28;20046;-72
2023/09/12 02:38:48;;;;;;;40.30;34.63;;;20.40;80.50;;;;;;5106873;28;20109;-72
2023/09/12 02:41:14;;;;;;;37.97;33.53;;;20.40;80.60;;;;;;5090488;28;20143;-72
2023/09/12 02:43:40;;;;;;;35.80;31.33;;;20.30;80.60;;;;;;5090793;28;20055;-72
2023/09/12 02:46:05;;;;;;;28.10;24.35;;;20.30;80.50;;;;;;5090901;28;20555;-72
2023/09/12 02:48:31;;;;;;;26.63;23.83;;;20.30;80.60;;;;;;5090256;28;20532;-72
2023/09/12 02:50:57;;;;;;;24.27;21.77;;;20.30;80.60;;;;;;5090591;28;20074;-72
2023/09/12 02:53:22;;;;;;;21.85;19.70;;;20.20;80.40;;;;;;5090591;28;20040;-72
2023/09/12 02:55:48;;;;;;;21.80;19.50;;;20.20;80.20;;;;;;5090474;28;20055;-72
2023/09/12 02:58:14;;;;;;;21.17;18.52;;;20.20;79.90;;;;;;5090022;28;20660;-72
2023/09/12 03:00:42;;;;;;;20.45;18.35;;;20.20;79.60;;;;;;5090235;28;20509;-72
2023/09/12 03:03:09;;;;;;;20.58;18.50;;;20.30;79.50;;;;;;5090511;28;20040;-72
2023/09/12 03:05:35;;;;;;;17.90;16.10;;;20.30;79.30;;;;;;5090958;28;20444;-72
2023/09/12 03:08:03;;;;;;;19.02;17.15;;;20.30;79.10;;;;;;5090104;28;20048;-72
2023/09/12 03:10:28;;;;;;;19.73;17.63;;;20.30;78.90;;;;;;5090429;28;20067;-72
2023/09/12 03:12:54;;;;;;;19.55;17.58;;;20.30;78.70;;;;;;5055199;28;20071;-72
2023/09/12 03:15:20;;;;;;;18.60;16.70;;;20.30;78.50;;;;;;5073645;28;20081;-72
2023/09/12 03:17:45;;;;;;;17.48;15.63;;;20.30;78.30;;;;;;5090478;28;20093;-73
2023/09/12 03:20:11;;;;;;;18.52;16.63;;;20.30;78.10;;;;;;5090396;28;20486;-72
2023/09/12 03:22:37;;;;;;;17.63;15.82;;;20.30;77.90;;;;;;5090224;28;20090;-72
2023/09/12 03:25:04;;;;;;;21.13;17.45;;;20.30;77.80;;;;;;5073544;28;20032;-72
2023/09/12 03:27:30;;;;;;;22.85;20.40;;;20.40;77.70;;;;;;5073048;28;20409;-72
2023/09/12 03:29:56;;;;;;;21.85;18.65;;;20.40;77.60;;;;;;5090007;28;20040;-72
2023/09/12 03:32:21;;;;;;;19.23;17.23;;;20.40;77.40;;;;;;5090075;28;20032;-72
2023/09/12 03:34:47;;;;;;;17.65;15.80;;;20.40;77.30;;;;;;5090164;28;20067;-72
2023/09/12 03:37:13;;;;;;;20.90;18.67;;;20.40;77.10;;;;;;5093147;28;20123;-72
2023/09/12 03:39:38;;;;;;;21.98;19.80;;;20.40;77.00;;;;;;5093757;28;20079;-73
2023/09/12 03:42:04;;;;;;;25.58;22.83;;;20.40;76.90;;;;;;5077127;28;20058;-73
2023/09/12 03:44:30;;;;;;;19.13;17.45;;;20.40;76.90;;;;;;5093641;28;20040;-72
2023/09/12 03:46:56;;;;;;;16.75;15.25;;;20.30;76.90;;;;;;5077000;28;20055;-72
2023/09/12 03:49:22;;;;;;;14.90;13.50;;;20.30;76.80;;;;;;5110356;28;20042;-72
2023/09/12 03:51:48;;;;;;;16.50;15.07;;;20.30;76.80;;;;;;5093587;28;20086;-72
2023/09/12 03:54:14;;;;;;;33.47;18.70;;;20.20;76.70;;;;;;5093446;28;20047;-72
2023/09/12 03:56:39;;;;;;;21.65;19.60;;;20.30;76.70;;;;;;5093659;28;20079;-72
2023/09/12 03:59:05;;;;;;;23.98;21.65;;;20.20;76.60;;;;;;5093683;28;20035;-72
2023/09/12 04:01:30;;;;;;;23.95;21.67;;;20.10;76.60;;;;;;5076415;28;20505;-73
2023/09/12 04:03:56;;;;;;;28.13;25.00;;;20.10;76.70;;;;;;5093619;28;20059;-73
2023/09/12 04:06:22;;;;;;;28.65;24.85;;;20.00;76.80;;;;;;5093705;28;20040;-72
2023/09/12 04:08:48;;;;;;;65.85;25.30;;;20.00;76.80;;;;;;5093402;28;20070;-72
2023/09/12 04:11:13;;;;;;;20.65;18.83;;;19.90;76.90;;;;;;5093237;28;20040;-72
2023/09/12 04:13:39;;;;;;;20.58;18.45;;;19.80;77.10;;;;;;5093392;28;20072;-72
2023/09/12 04:16:04;;;;;;;23.77;20.55;;;19.70;77.60;;;;;;5093490;28;20031;-72
2023/09/12 04:18:30;;;;;;;98.10;26.67;;;19.60;78.00;;;;;;5076285;28;20028;-72
2023/09/12 04:20:57;;;;;;;25.48;22.88;;;19.60;78.40;;;;;;5093120;28;20035;-72
2023/09/12 04:23:24;;;;;;;34.60;24.88;;;19.50;78.80;;;;;;5093548;28;20398;-73
2023/09/12 04:25:50;;;;;;;30.10;26.20;;;19.40;79.10;;;;;;5093125;28;20046;-72
2023/09/12 04:28:16;;;;;;;29.98;26.60;;;19.40;79.60;;;;;;5076085;28;20464;-72
2023/09/12 04:30:41;;;;;;;28.85;23.80;;;19.30;79.90;;;;;;5092971;28;20044;-72
2023/09/12 04:33:07;;;;;;;33.00;27.55;;;19.30;80.10;;;;;;5076096;28;20028;-72
2023/09/12 04:35:33;;;;;;;20.23;18.20;;;19.30;80.40;;;;;;5075955;28;20032;-72
2023/09/12 04:37:59;;;;;;;36.25;22.88;;;19.30;80.60;;;;;;5092642;28;20040;-72
2023/09/12 04:40:25;;;;;;;40.05;30.75;;;19.30;80.70;;;;;;5058533;28;20097;-72
2023/09/12 04:42:50;;;;;;;51.92;33.30;;;19.30;80.90;;;;;;5092980;28;20072;-72
2023/09/12 04:45:16;;;;;;;32.28;28.42;;;19.30;81.10;;;;;;5076278;28;20524;-72
2023/09/12 04:47:42;;;;;;;22.48;19.02;;;19.30;81.20;;;;;;5074000;28;20418;-72
2023/09/12 04:50:08;;;;;;;27.88;24.52;;;19.30;81.30;;;;;;5092258;28;20044;-72
2023/09/12 04:52:34;;;;;;;24.55;20.75;;;19.30;81.30;;;;;;5090317;28;20048;-72
2023/09/12 04:55:00;;;;;;;20.70;18.45;;;19.30;81.30;;;;;;5092764;28;20438;-72
2023/09/12 04:57:25;;;;;;;18.65;16.67;;;19.30;81.20;;;;;;5092563;28;20024;-72
2023/09/12 04:59:52;;;;;;;21.98;19.63;;;19.30;81.00;;;;;;5075414;28;20458;-72
2023/09/12 05:02:18;;;;;;;21.42;19.13;;;19.40;80.90;;;;;;5075334;28;20048;-72
2023/09/12 05:04:43;;;;;;;23.98;20.48;;;19.40;80.90;;;;;;5092202;28;20044;-72
2023/09/12 05:07:09;;;;;;;33.88;29.02;;;19.40;80.70;;;;;;5092508;28;20043;-72
2023/09/12 05:09:35;;;;;;;21.38;19.08;;;19.50;80.70;;;;;;5075259;28;20048;-72
2023/09/12 05:12:01;;;;;;;26.13;23.30;;;19.50;80.70;;;;;;5058541;28;20063;-72
2023/09/12 05:14:26;;;;;;;26.27;22.33;;;19.60;80.60;;;;;;5092054;28;20032;-72
2023/09/12 05:16:53;;;;;;;25.98;23.13;;;19.60;80.60;;;;;;5091661;28;20028;-72
2023/09/12 05:19:18;;;;;;;26.25;22.83;;;19.60;80.50;;;;;;5092093;28;20040;-72
2023/09/12 05:21:44;;;;;;;25.90;22.17;;;19.60;80.40;;;;;;5092109;28;20052;-72
2023/09/12 05:24:10;;;;;;;25.08;22.13;;;19.60;80.30;;;;;;5055830;28;20040;-72
2023/09/12 05:26:36;;;;;;;28.90;25.05;;;19.60;80.20;;;;;;5091658;28;20040;-72
2023/09/12 05:29:02;;;;;;;42.80;31.88;;;19.70;80.10;;;;;;5074292;28;20025;-72
2023/09/12 05:31:28;;;;;;;24.55;21.80;;;19.70;80.10;;;;;;5091784;28;20456;-72
2023/09/12 05:33:53;;;;;;;33.33;27.48;;;19.80;80.10;;;;;;5074775;28;20118;-71
2023/09/12 05:36:19;;;;;;;25.63;22.83;;;19.80;80.00;;;;;;5091580;28;20068;-72
2023/09/12 05:38:45;;;;;;;27.48;23.85;;;19.80;79.90;;;;;;5091739;28;20405;-72
2023/09/12 05:41:10;;;;;;;25.55;22.77;;;19.80;79.80;;;;;;5074888;28;20044;-72
2023/09/12 05:43:36;;;;;;;40.45;29.55;;;19.80;79.70;;;;;;5091917;28;20047;-72
2023/09/12 05:46:02;;;;;;;31.73;28.05;;;19.80;79.80;;;;;;5091246;28;20088;-72
2023/09/12 05:48:28;;;;;;;40.38;31.77;;;19.90;80.00;;;;;;5074207;28;20123;-72
2023/09/12 05:50:53;;;;;;;43.60;30.35;;;19.90;80.10;;;;;;5091375;28;20487;-72
2023/09/12 05:53:19;;;;;;;36.78;29.20;;;19.90;80.20;;;;;;5092621;28;20111;-72
2023/09/12 05:55:45;;;;;;;70.10;33.22;;;19.90;80.30;;;;;;5091134;28;20040;-72
2023/09/12 05:58:10;;;;;;;25.02;22.42;;;19.90;80.40;;;;;;5091363;28;20111;-72
2023/09/12 06:00:36;;;;;;;25.55;22.95;;;19.90;80.40;;;;;;5089869;28;20123;-72
2023/09/12 06:03:02;;;;;;;25.88;23.17;;;19.90;80.40;;;;;;5090528;28;20036;-72
2023/09/12 06:05:28;;;;;;;27.23;24.42;;;19.90;80.30;;;;;;5089873;28;20050;-72
2023/09/12 06:07:53;;;;;;;36.25;29.83;;;19.90;80.20;;;;;;5086506;28;20082;-72
2023/09/12 06:10:19;;;;;;;30.65;27.55;;;19.90;80.30;;;;;;5086716;28;20079;-72
2023/09/12 06:12:45;;;;;;;34.45;29.10;;;19.90;80.30;;;;;;5086187;28;20712;-72
2023/09/12 06:15:10;;;;;;;48.08;34.17;;;19.90;80.40;;;;;;5086679;28;20048;-72
2023/09/12 06:17:36;;;;;;;36.05;32.15;;;19.90;80.60;;;;;;5086028;28;20439;-74
2023/09/12 06:20:06;;;;;;;40.35;33.72;;;19.90;80.70;;;;;;5086438;28;20047;-72
2023/09/12 06:22:32;;;;;;;32.40;28.90;;;19.80;80.90;;;;;;5086895;28;20047;-72
2023/09/12 06:24:57;;;;;;;33.95;30.20;;;19.80;81.10;;;;;;5086606;28;20366;-72
2023/09/12 06:27:23;;;;;;;39.05;32.83;;;19.80;81.30;;;;;;5086152;28;20036;-72
2023/09/12 06:29:49;;;;;;;41.75;36.25;;;19.70;81.50;;;;;;5086246;28;20043;-72
2023/09/12 06:32:15;;;;;;;39.40;31.52;;;19.70;81.70;;;;;;5068830;28;20037;-72
2023/09/12 06:34:42;;;;;;;44.80;32.58;;;19.70;81.90;;;;;;5086534;28;20040;-72
2023/09/12 06:37:08;;;;;;;30.88;27.60;;;19.60;81.90;;;;;;5086353;28;20066;-72
2023/09/12 06:39:33;;;;;;;34.67;31.05;;;19.60;82.20;;;;;;5085801;28;20044;-72
2023/09/12 06:41:59;;;;;;;35.78;31.83;;;19.60;82.40;;;;;;5085860;28;20252;-72
2023/09/12 06:44:25;;;;;;;36.90;31.95;;;19.50;82.60;;;;;;5085496;28;20047;-72
2023/09/12 06:46:51;;;;;;;33.55;28.75;;;19.50;82.80;;;;;;5085562;28;20044;-72
2023/09/12 06:49:16;;;;;;;39.67;33.13;;;19.50;83.00;;;;;;5086173;28;20044;-72
2023/09/12 06:51:42;;;;;;;38.15;31.17;;;19.50;83.20;;;;;;5085916;28;20047;-72
2023/09/12 06:54:08;;;;;;;39.08;33.40;;;19.50;83.30;;;;;;5069028;28;20120;-72
2023/09/12 06:56:37;;;;;;;46.17;36.30;;;19.50;83.60;;;;;;5085316;28;20040;-72
2023/09/12 06:59:06;;;;;;;61.75;41.90;;;19.60;84.00;;;;;;5085615;28;20115;-72
2023/09/12 07:01:32;;;;;;;47.33;36.08;;;19.60;84.10;;;;;;5085790;28;20115;-72
2023/09/12 07:03:58;;;;;;;50.13;39.00;;;19.60;84.10;;;;;;5085216;28;20180;-72
2023/09/12 07:06:24;;;;;;;44.22;36.92;;;19.60;84.20;;;;;;5068171;28;20060;-72
2023/09/12 07:08:51;;;;;;;34.35;28.42;;;19.60;84.30;;;;;;5085782;28;20040;-72
2023/09/12 07:11:16;;;;;;;54.15;40.17;;;19.70;84.40;;;;;;5087430;28;20490;-72
2023/09/12 07:13:42;;;;;;;48.78;39.17;;;19.70;84.60;;;;;;5072644;28;20038;-72
2023/09/12 07:16:08;;;;;;;45.42;35.63;;;19.80;84.80;;;;;;5089995;28;20051;-72
2023/09/12 07:18:33;;;;;;;53.65;41.72;;;19.80;84.90;;;;;;5089953;28;20047;-73
2023/09/12 07:21:00;;;;;;;51.78;39.78;;;19.90;85.10;;;;;;5089599;28;20105;-72
2023/09/12 07:23:27;;;;;;;38.38;31.58;;;20.00;84.90;;;;;;5089248;28;20036;-72
2023/09/12 07:25:55;;;;;;;44.55;36.65;;;20.10;84.80;;;;;;5089900;28;20822;-72
2023/09/12 07:28:21;;;;;;;42.78;34.47;;;20.10;84.70;;;;;;5089277;28;20036;-72
2023/09/12 07:30:46;;;;;;;36.25;29.35;;;20.20;84.60;;;;;;5089174;28;20044;-72
2023/09/12 07:33:12;;;;;;;35.95;31.65;;;20.30;84.40;;;;;;5089632;28;20090;-72
2023/09/12 07:35:38;;;;;;;40.05;32.70;;;20.30;84.10;;;;;;5071954;28;20050;-72
2023/09/12 07:38:04;;;;;;;38.83;33.67;;;20.40;84.10;;;;;;5071759;28;20071;-72
2023/09/12 07:40:30;;;;;;;37.20;31.80;;;20.50;83.90;;;;;;5089223;28;20055;-72
2023/09/12 07:42:55;;;;;;;39.00;33.13;;;20.60;83.80;;;;;;5072485;28;20575;-72
2023/09/12 07:45:21;;;;;;;40.45;31.60;;;20.60;83.50;;;;;;5105768;28;20130;-72
2023/09/12 07:47:47;;;;;;;37.22;31.80;;;20.70;83.40;;;;;;5089475;28;20040;-72
2023/09/12 07:50:13;;;;;;;40.35;34.88;;;20.80;83.40;;;;;;5088939;28;20436;-73
2023/09/12 07:52:38;;;;;;;47.53;37.47;;;20.80;83.00;;;;;;5071834;28;20051;-72
2023/09/12 07:55:05;;;;;;;50.60;39.67;;;20.90;83.00;;;;;;5089307;28;20044;-72
2023/09/12 07:57:31;;;;;;;51.65;42.20;;;20.90;82.80;;;;;;5088742;28;20459;-72
2023/09/12 07:59:57;;;;;;;48.40;40.42;;;21.00;82.60;;;;;;5072123;28;20040;-72
2023/09/12 08:02:23;;;;;;;42.55;37.47;;;21.00;82.40;;;;;;5087223;28;20127;-72
2023/09/12 08:04:55;;;;;;;45.30;35.75;;;21.00;82.30;;;;;;5089018;28;20119;-70
2023/09/12 08:07:21;;;;;;;41.42;35.85;;;21.10;82.30;;;;;;5088903;28;20094;-70
2023/09/12 08:09:58;;;;;;;37.58;32.83;;;21.10;82.40;;;;;;5088827;28;20063;-70
2023/09/12 08:12:26;;;;;;;45.25;38.15;;;21.20;82.60;;;;;;5088349;28;20040;-70
2023/09/12 08:14:52;;;;;;;38.90;34.20;;;21.20;82.90;;;;;;5088951;28;20048;-70
2023/09/12 08:17:18;;;;;;;39.80;35.53;;;21.30;82.60;;;;;;5089038;28;20040;-70
2023/09/12 08:19:44;;;;;;;37.78;32.97;;;21.40;82.20;;;;;;5088422;28;20522;-70
2023/09/12 08:22:10;;;;;;;37.60;33.60;;;21.50;81.90;;;;;;5087830;28;20062;-70
2023/09/12 08:24:36;;;;;;;41.92;35.25;;;21.60;81.80;;;;;;5088752;28;20069;-70
2023/09/12 08:27:03;;;;;;;42.65;35.22;;;21.60;81.60;;;;;;5088516;28;20067;-69
2023/09/12 08:29:29;;;;;;;41.95;37.50;;;21.70;81.50;;;;;;5088727;28;20052;-69
2023/09/12 08:31:55;;;;;;;40.25;35.25;;;21.70;81.30;;;;;;5087652;28;20036;-70
2023/09/12 08:34:21;;;;;;;35.85;31.95;;;21.80;81.30;;;;;;5087836;28;20028;-70
2023/09/12 08:36:47;;;;;;;41.78;35.13;;;21.90;81.00;;;;;;5071486;28;20994;-70
2023/09/12 08:39:18;;;;;;;37.45;32.95;;;22.00;80.80;;;;;;5088361;28;20032;-70
2023/09/12 08:41:46;;;;;;;43.10;36.67;;;22.10;80.80;;;;;;5071197;28;20047;-70
2023/09/12 08:44:12;;;;;;;36.42;31.75;;;22.30;80.70;;;;;;5070872;28;20051;-70
2023/09/12 08:46:41;;;;;;;36.97;32.40;;;22.40;80.50;;;;;;5071229;28;20036;-69
2023/09/12 08:49:07;;;;;;;37.22;31.00;;;22.50;80.40;;;;;;5088358;28;20048;-69
2023/09/12 08:51:33;;;;;;;34.03;30.30;;;22.70;79.60;;;;;;5071054;28;20123;-70
2023/09/12 08:53:59;;;;;;;39.70;33.25;;;22.70;78.90;;;;;;5086946;28;20126;-70
2023/09/12 08:56:25;;;;;;;33.20;29.60;;;23.00;78.70;;;;;;5071375;28;20443;-70
2023/09/12 08:58:51;;;;;;;33.33;29.85;;;23.10;78.30;;;;;;5071382;28;20032;-70
2023/09/12 09:01:20;;;;;;;33.88;29.17;;;23.30;77.60;;;;;;5088228;28;20039;-72
2023/09/12 09:03:46;;;;;;;30.20;26.80;;;23.30;76.60;;;;;;5088033;28;20044;-72
2023/09/12 09:06:13;;;;;;;31.30;27.65;;;23.40;76.30;;;;;;5087894;28;20100;-72
2023/09/12 09:08:40;;;;;;;30.52;27.33;;;23.50;75.80;;;;;;5087749;28;20465;-72
2023/09/12 09:11:06;;;;;;;31.77;28.38;;;23.60;75.40;;;;;;5087455;28;20156;-72
2023/09/12 09:13:32;;;;;;;33.33;27.58;;;23.60;75.40;;;;;;5087327;28;20128;-72
2023/09/12 09:16:19;;;;;;;31.13;27.30;;;23.70;75.80;;;;;;5086902;28;20043;-72
2023/09/12 09:18:57;;;;;;;30.05;25.80;;;23.80;75.10;;;;;;5087579;28;20036;-72
2023/09/12 09:21:31;;;;;;;29.33;26.00;;;23.80;74.50;;;;;;5086014;28;20494;-72
2023/09/12 09:24:17;;;;;;;;;;;23.90;74.00;;;;;;5071373;28;20058;-72
2023/09/12 09:26:45;;;;;;;28.35;24.50;;;23.90;74.40;;;;;;5086762;28;19938;-72
2023/09/12 09:29:18;;;;;;;27.42;24.50;;;24.00;74.20;;;;;;5087934;28;20044;-72
2023/09/12 09:31:49;;;;;;;30.52;26.42;;;24.10;73.70;;;;;;5087258;28;20048;-72
2023/09/12 09:34:21;;;;;;;29.65;26.48;;;24.10;73.50;;;;;;5087209;28;20445;-69
2023/09/12 09:36:51;;;;;;;27.55;24.58;;;24.20;73.50;;;;;;5087158;28;20066;-69
2023/09/12 09:39:19;;;;;;;28.88;25.80;;;24.30;72.90;;;;;;5086920;28;20048;-69
2023/09/12 09:41:53;;;;;;;30.08;26.92;;;24.40;72.30;;;;;;5087705;28;20056;-69
2023/09/12 09:44:21;;;;;;;29.42;26.17;;;24.50;71.90;;;;;;5087228;28;20133;-69
2023/09/12 09:46:50;;;;;;;29.02;25.50;;;24.60;71.70;;;;;;5087024;28;20044;-71
2023/09/12 09:49:19;;;;;;;29.05;24.15;;;24.60;70.90;;;;;;5087141;28;20047;-70
2023/09/12 09:51:45;;;;;;;29.98;26.88;;;24.70;70.70;;;;;;5070113;28;20044;-70
2023/09/12 09:54:12;;;;;;;27.20;23.73;;;24.70;70.70;;;;;;5086893;28;20043;-70
2023/09/12 09:56:55;;;;;;;28.08;25.08;;;24.80;70.40;;;;;;5070040;28;20461;-70
2023/09/12 09:59:23;;;;;;;26.20;22.63;;;24.80;70.30;;;;;;5086872;28;20032;-70
2023/09/12 10:01:51;;;;;;;26.05;23.45;;;24.80;70.50;;;;;;5086971;28;20040;-70
2023/09/12 10:04:18;;;;;;;30.38;26.45;;;24.90;70.20;;;;;;5086744;28;20555;-70
2023/09/12 10:06:46;;;;;;;29.15;25.08;;;25.00;69.80;;;;;;5086807;28;20051;-70
2023/09/12 10:09:13;;;;;;;27.00;24.08;;;25.00;69.70;;;;;;5086648;28;20039;-70
2023/09/12 10:11:41;;;;;;;26.20;23.50;;;25.10;69.60;;;;;;5086650;28;20471;-70
2023/09/12 10:14:07;;;;;;;23.77;21.27;;;25.10;69.40;;;;;;5069807;28;20524;-70
2023/09/12 10:16:36;;;;;;;26.58;23.83;;;25.10;69.10;;;;;;5069553;28;20040;-70
2023/09/12 10:19:17;;;;;;;26.83;23.85;;;25.20;68.90;;;;;;5086335;28;20036;-70
2023/09/12 10:22:00;;;;;;;23.90;21.35;;;25.20;68.70;;;;;;5069839;28;20126;-70
2023/09/12 10:24:27;;;;;;;26.23;23.40;;;25.30;68.50;;;;;;5086661;28;20044;-70
2023/09/12 10:26:54;;;;;;;26.55;22.30;;;25.30;68.90;;;;;;5069518;28;20600;-70
2023/09/12 10:29:22;;;;;;;24.70;21.85;;;25.40;68.80;;;;;;5086270;28;20123;-70
2023/09/12 10:31:48;;;;;;;25.50;22.88;;;25.40;68.50;;;;;;5086057;28;20498;-70
2023/09/12 10:34:15;;;;;;;25.15;22.48;;;25.50;68.00;;;;;;5086480;28;20081;-70
2023/09/12 10:36:42;;;;;;;22.23;19.92;;;25.60;67.60;;;;;;5069242;28;20107;-70
2023/09/12 10:39:10;;;;;;;23.60;20.63;;;25.60;67.10;;;;;;5068943;28;20051;-70
2023/09/12 10:41:38;;;;;;;25.45;22.73;;;25.70;66.80;;;;;;5085710;28;20067;-70
2023/09/12 10:44:11;;;;;;;25.75;21.50;;;25.80;66.50;;;;;;5086286;28;20044;-70
2023/09/12 10:46:42;;;;;;;26.20;23.42;;;25.80;66.70;;;;;;5068720;28;20043;-70
2023/09/12 10:49:13;;;;;;;26.00;22.95;;;25.80;65.90;;;;;;5068555;28;20066;-70
2023/09/12 10:51:47;;;;;;;24.23;21.27;;;25.90;65.90;;;;;;5086061;28;20043;-70
2023/09/12 10:54:15;;;;;;;28.40;23.83;;;26.00;66.30;;;;;;5085636;28;20502;-70
2023/09/12 10:56:41;;;;;;;22.85;20.45;;;26.10;65.30;;;;;;5085937;28;20645;-70
2023/09/12 10:59:07;;;;;;;22.90;20.48;;;26.10;65.00;;;;;;5086192;28;20040;-70
2023/09/12 11:01:35;;;;;;;23.08;18.88;;;26.10;64.70;;;;;;5085930;28;20505;-70
2023/09/12 11:04:23;;;;;;;21.52;17.77;;;26.20;64.50;;;;;;5086328;28;20047;-71
2023/09/12 11:06:50;;;;;;;21.30;18.90;;;26.20;64.90;;;;;;5055749;28;20054;-71
2023/09/12 11:09:23;;;;;;;20.80;17.58;;;26.20;64.50;;;;;;5085590;28;20051;-71
2023/09/12 11:11:57;;;;;;;17.52;15.63;;;26.30;65.00;;;;;;5084953;28;20039;-71
2023/09/12 11:14:24;;;;;;;19.63;17.52;;;26.40;64.50;;;;;;5085127;28;20136;-71
2023/09/12 11:17:08;;;;;;;16.00;14.38;;;26.40;64.10;;;;;;5085801;28;20374;-71
2023/09/12 11:19:47;;;;;;;18.15;15.82;;;26.50;63.50;;;;;;5085747;28;20185;-71
2023/09/12 11:22:26;;;;;;;17.27;15.43;;;26.60;63.60;;;;;;5085895;28;20112;-71
2023/09/12 11:24:55;;;;;;;15.45;13.10;;;26.60;63.00;;;;;;5068892;28;20044;-71
2023/09/12 11:27:22;;;;;;;16.98;15.25;;;26.70;62.80;;;;;;5085910;28;20051;-71
2023/09/12 11:29:48;;;;;;;16.23;14.15;;;26.70;62.30;;;;;;5086192;28;20394;-71
2023/09/12 11:32:31;;;;;;;18.58;14.77;;;26.80;62.40;;;;;;5069153;28;20052;-71
2023/09/12 11:34:57;;;;;;;16.40;13.85;;;26.80;62.50;;;;;;5081266;28;20040;-71
2023/09/12 11:37:24;;;;;;;15.07;13.48;;;26.80;62.10;;;;;;5061636;28;20774;-71
2023/09/12 11:39:52;;;;;;;14.50;12.55;;;26.90;61.30;;;;;;5078214;28;20059;-71
2023/09/12 11:42:18;;;;;;;14.80;11.95;;;26.80;61.00;;;;;;5079700;28;20048;-71
2023/09/12 11:44:47;;;;;;;14.80;12.85;;;26.90;61.40;;;;;;5080318;28;20063;-71
2023/09/12 11:47:13;;;;;;;12.25;10.63;;;26.90;60.90;;;;;;5062901;28;20032;-72
2023/09/12 11:49:40;;;;;;;15.38;12.60;;;26.80;61.00;;;;;;5079685;28;20040;-71
2023/09/12 11:52:12;;;;;;;13.05;11.18;;;26.80;61.00;;;;;;5052327;28;20059;-71
2023/09/12 11:54:43;;;;;;;13.98;12.20;;;26.80;60.90;;;;;;5079659;28;20131;-71
2023/09/12 11:57:11;;;;;;;14.70;12.35;;;26.90;61.50;;;;;;5080826;28;20055;-71
2023/09/12 11:59:39;;;;;;;15.05;12.95;;;26.80;62.30;;;;;;5081803;28;20090;-73
2023/09/12 12:02:09;;;;;;;13.93;11.65;;;26.90;62.20;;;;;;5067372;28;20036;-73
2023/09/12 12:04:35;;;;;;;16.70;13.45;;;26.90;62.30;;;;;;5081992;28;20514;-73
2023/09/12 12:07:04;;;;;;;12.65;11.20;;;26.90;62.60;;;;;;5082531;28;20478;-73
2023/09/12 12:09:30;;;;;;;12.73;10.80;;;26.90;62.30;;;;;;5066124;28;20075;-73
2023/09/12 12:12:00;;;;;;;13.20;11.80;;;26.90;62.00;;;;;;5084095;28;20428;-73
2023/09/12 12:14:26;;;;;;;15.32;11.45;;;26.90;61.40;;;;;;5083858;28;20047;-73
2023/09/12 12:16:52;;;;;;;13.50;9.75;;;26.90;60.60;;;;;;5066292;28;20111;-73
2023/09/12 12:19:18;;;;;;;11.73;10.18;;;26.80;60.70;;;;;;5082487;28;20067;-73
2023/09/12 12:21:45;;;;;;;14.40;10.90;;;26.80;60.90;;;;;;5082565;28;20127;-73
2023/09/12 12:24:13;;;;;;;14.02;10.43;;;26.70;61.10;;;;;;5082289;28;20122;-76
2023/09/12 12:26:42;;;;;;;14.70;11.10;;;26.80;61.60;;;;;;5083327;28;20054;-77
2023/09/12 12:29:10;;;;;;;12.48;10.02;;;26.70;61.90;;;;;;5083708;28;20035;-77